CWUW

Dewar Lakes Airport

Canada

CWUW 260100Z AUTO 06004KT ////SM //// OVC013 M06/M07 A2976

Observed Flight Rules
Sep-26 @ 01:00 UTC (an hour ago)
Unavailable
Wind Clouds
60° at 4 knots
  • Overcast at 1,300' AGL
Temperatures Readings
Current -6°C / 21°F
Dewpoint -7°C / 19°F
Humidity 93%
Altimeter 29.76" Hg
Pressure 1008 hPa
Elevation 527
Observed Flight Rules
Sep-26 @ 01:00 UTC
(an hour ago)
UNK
Wind
60° at 4 knots
Clouds
  • Overcast at 1,300' AGL
Temperature Dewpoint
-6°C / 21°F -7°C / 19°F
Humidity Altimeter Pressure
93% 29.76" Hg 1008 hPa